Westbury, New York
Current Conditions -  °F | °C
As of 1:53 PM on Friday 24 Oct 2014 (Local Time) from KFRG Reporting Station
Overcast Overcast  
Wind Chill: 57°   Ceiling: 3300
Heat Index: 57°   Visibility: 10mi
Dew Point: 43°   Wind: 12mph
Humidity: 59%   Direction: 330°NNW
Pressure: 29.77"   Gusts: NA
Location:  40.76°N, 73.59°W
Report Text: KFRG 241753Z 33010KT 10SM OVC033 14/06 A2977 RMK AO2 SLP081 60000 T01390061 10150 20106 58011
Loading
Personal Weather Stations






























Interactive Weather Map New forecast layout! Learn more

10-Day Weather Forecast

Advertisements
Track Severe Weather on mobile